Time;durP1;ratioP1;P1;durP2;ratioP2;P2;SDS_P1;SDS_P2;PMS_P1;PMS_P2;Temp;Humidity;BMP_temperature;BMP_pressure;BME280_temperature;BME280_humidity;BME280_pressure;Samples;Min_cycle;Max_cycle;Signal;HPM_P1;HPM_P2
2022/03/01 00:01:30;;;;;;;5.47;5.07;;;1.80;99.90;;;;;;4887943;29;20056;-85
2022/03/01 00:03:56;;;;;;;8.17;5.87;;;1.80;99.90;;;;;;4887396;29;20477;-85
2022/03/01 00:06:21;;;;;;;12.10;7.70;;;1.80;99.90;;;;;;4902708;29;20063;-85
2022/03/01 00:08:47;;;;;;;15.97;8.80;;;1.70;99.90;;;;;;4887001;29;20072;-86
2022/03/01 00:11:13;;;;;;;9.20;5.50;;;1.70;99.90;;;;;;4905394;29;20059;-85
2022/03/01 00:13:39;;;;;;;6.53;4.87;;;1.70;99.90;;;;;;4904902;29;20063;-86
2022/03/01 00:16:05;;;;;;;14.57;5.57;;;1.80;99.90;;;;;;4908910;29;20048;-85
2022/03/01 00:18:31;;;;;;;10.10;6.67;;;1.80;99.90;;;;;;4909177;29;20058;-85
2022/03/01 00:20:57;;;;;;;5.27;4.90;;;1.80;99.90;;;;;;4909821;29;20040;-85
2022/03/01 00:23:22;;;;;;;10.80;8.23;;;1.70;99.90;;;;;;4909402;29;20075;-85
2022/03/01 00:25:48;;;;;;;5.07;4.67;;;1.70;99.90;;;;;;4892839;29;20047;-84
2022/03/01 00:28:13;;;;;;;5.37;4.90;;;1.70;99.90;;;;;;4910279;29;20052;-86
2022/03/01 00:30:39;;;;;;;8.40;5.03;;;1.70;99.90;;;;;;4908851;29;20048;-82
2022/03/01 00:33:04;;;;;;;8.43;6.93;;;1.70;99.90;;;;;;4908647;29;20123;-85
2022/03/01 00:35:30;;;;;;;6.40;5.77;;;1.70;99.90;;;;;;4893265;29;20048;-85
2022/03/01 00:37:57;;;;;;;7.03;6.00;;;1.70;99.90;;;;;;4907832;29;20112;-86
2022/03/01 00:40:23;;;;;;;6.67;6.07;;;1.70;99.90;;;;;;4893143;29;20059;-86
2022/03/01 00:42:48;;;;;;;7.60;6.43;;;1.70;99.90;;;;;;4908126;29;20043;-84
2022/03/01 00:45:14;;;;;;;7.60;6.03;;;1.70;99.90;;;;;;4903094;29;20103;-84
2022/03/01 00:47:39;;;;;;;7.00;6.40;;;1.70;99.90;;;;;;4908854;29;20518;-84
2022/03/01 00:50:06;;;;;;;11.00;7.00;;;1.70;99.90;;;;;;4909534;29;20479;-81
2022/03/01 00:52:31;;;;;;;6.47;5.97;;;1.70;99.90;;;;;;4907628;29;20080;-84
2022/03/01 00:54:57;;;;;;;7.83;7.20;;;1.70;99.90;;;;;;4908106;29;20102;-84
2022/03/01 00:57:23;;;;;;;5.90;5.40;;;1.70;99.90;;;;;;4910134;29;20050;-83
2022/03/01 00:59:48;;;;;;;10.67;5.43;;;1.80;99.90;;;;;;4908250;29;20055;-84
2022/03/01 01:02:14;;;;;;;7.57;6.77;;;1.80;99.90;;;;;;4910115;29;20139;-84
2022/03/01 01:04:39;;;;;;;5.70;5.20;;;1.70;99.90;;;;;;4909880;29;20055;-84
2022/03/01 01:07:05;;;;;;;10.47;5.87;;;1.70;99.90;;;;;;4907978;29;20068;-84
2022/03/01 01:09:30;;;;;;;7.37;5.60;;;1.70;99.90;;;;;;4908280;29;20503;-84
2022/03/01 01:11:57;;;;;;;12.70;9.00;;;1.70;99.90;;;;;;4907877;29;20052;-85
2022/03/01 01:14:23;;;;;;;7.43;5.37;;;1.70;99.90;;;;;;4908041;29;20052;-84
2022/03/01 01:16:48;;;;;;;8.03;7.40;;;1.80;99.90;;;;;;4909079;29;20052;-85
2022/03/01 01:19:14;;;;;;;6.53;6.03;;;1.70;99.90;;;;;;4924227;29;20478;-85
2022/03/01 01:24:24;;;;;;;6.63;5.57;;;1.70;99.90;;;;;;4908220;29;20090;-82
2022/03/01 01:26:50;;;;;;;6.73;6.20;;;1.70;99.90;;;;;;4907000;29;20793;-84
2022/03/01 01:29:16;;;;;;;11.63;5.60;;;1.70;99.90;;;;;;4907917;29;20128;-84
2022/03/01 01:31:41;;;;;;;8.13;7.30;;;1.70;99.90;;;;;;4909678;29;20487;-84
2022/03/01 01:34:07;;;;;;;8.47;7.37;;;1.70;99.90;;;;;;4908474;29;20127;-85
2022/03/01 01:36:32;;;;;;;11.80;7.53;;;1.70;99.90;;;;;;4908319;29;20108;-83
2022/03/01 01:38:58;;;;;;;13.67;8.87;;;1.70;99.90;;;;;;4908955;29;20095;-84
2022/03/01 01:41:24;;;;;;;10.20;7.77;;;1.70;99.90;;;;;;4908666;29;20056;-85
2022/03/01 01:43:49;;;;;;;7.90;5.73;;;1.70;99.90;;;;;;4905935;29;20035;-85
2022/03/01 01:46:15;;;;;;;7.30;6.57;;;1.70;99.90;;;;;;4923562;29;20070;-86
2022/03/01 01:48:40;;;;;;;9.57;7.63;;;1.70;99.90;;;;;;4907781;29;20487;-84
2022/03/01 01:51:06;;;;;;;11.13;7.87;;;1.70;99.90;;;;;;4907622;29;20123;-84
2022/03/01 01:53:32;;;;;;;12.17;8.00;;;1.80;99.90;;;;;;4906520;29;20134;-85
2022/03/01 01:55:57;;;;;;;9.80;5.63;;;1.80;99.90;;;;;;4908712;29;20095;-84
2022/03/01 01:58:23;;;;;;;11.30;6.27;;;1.70;99.90;;;;;;4907832;29;20048;-85
2022/03/01 02:00:48;;;;;;;9.67;7.77;;;1.80;99.90;;;;;;4908062;29;20047;-84
2022/03/01 02:03:15;;;;;;;9.93;6.97;;;1.80;99.90;;;;;;4909022;29;20048;-85
2022/03/01 02:05:40;;;;;;;10.20;7.23;;;1.80;99.90;;;;;;4908616;29;20083;-85
2022/03/01 02:08:06;;;;;;;8.23;7.47;;;1.80;99.90;;;;;;4906711;29;20092;-85
2022/03/01 02:10:32;;;;;;;5.07;4.23;;;1.80;99.90;;;;;;4908536;29;20048;-84
2022/03/01 02:12:57;;;;;;;8.30;7.30;;;1.80;99.90;;;;;;4927279;23;20044;-73
2022/03/01 02:15:23;;;;;;;9.93;7.70;;;1.90;99.90;;;;;;4946768;29;20094;-73
2022/03/01 02:17:49;;;;;;;9.00;8.17;;;1.90;99.90;;;;;;4946351;28;20035;-73
2022/03/01 02:20:19;;;;;;;16.03;8.33;;;1.90;99.90;;;;;;4946168;29;20131;-73
2022/03/01 02:22:47;;;;;;;14.03;8.43;;;1.90;99.90;;;;;;4945504;28;20556;-73
2022/03/01 02:25:13;;;;;;;8.77;5.40;;;1.90;99.90;;;;;;4946953;28;20047;-73
2022/03/01 02:27:39;;;;;;;8.67;7.43;;;1.90;99.90;;;;;;4946815;28;20498;-73
2022/03/01 02:30:07;;;;;;;11.90;7.13;;;1.90;99.90;;;;;;4945996;28;20134;-73
2022/03/01 02:32:33;;;;;;;9.47;7.50;;;1.90;99.90;;;;;;4946059;28;20039;-73
2022/03/01 02:34:59;;;;;;;8.90;8.07;;;1.90;99.90;;;;;;4946243;28;20043;-73
2022/03/01 02:37:25;;;;;;;6.37;5.20;;;2.00;99.90;;;;;;4945600;28;20050;-73
2022/03/01 02:39:53;;;;;;;5.77;5.27;;;2.00;99.90;;;;;;4945327;28;20044;-73
2022/03/01 02:42:19;;;;;;;7.17;6.23;;;2.00;99.90;;;;;;4946335;28;20055;-73
2022/03/01 02:44:44;;;;;;;10.23;8.20;;;2.00;99.90;;;;;;4919336;29;20047;-73
2022/03/01 02:47:10;;;;;;;8.33;7.53;;;2.00;99.90;;;;;;4931027;29;20031;-73
2022/03/01 02:49:36;;;;;;;9.73;8.93;;;2.00;99.90;;;;;;4946374;29;20055;-73
2022/03/01 02:52:01;;;;;;;6.97;5.93;;;2.00;99.90;;;;;;4944695;29;20039;-73
2022/03/01 02:54:27;;;;;;;8.10;7.30;;;2.00;99.90;;;;;;4946044;28;20058;-73
2022/03/01 02:56:52;;;;;;;8.37;6.40;;;2.00;99.90;;;;;;4944505;29;20660;-73
2022/03/01 02:59:18;;;;;;;11.60;5.90;;;2.00;99.90;;;;;;4945610;28;20556;-73
2022/03/01 03:01:43;;;;;;;7.13;6.53;;;2.00;99.90;;;;;;4946397;29;20039;-73
2022/03/01 03:04:09;;;;;;;6.57;6.07;;;2.00;99.90;;;;;;4945027;28;20043;-73
2022/03/01 03:06:34;;;;;;;9.07;5.87;;;2.00;99.90;;;;;;4944963;28;20043;-73
2022/03/01 03:09:00;;;;;;;10.07;5.57;;;2.00;99.90;;;;;;4945926;29;20130;-73
2022/03/01 03:11:25;;;;;;;7.17;6.33;;;2.00;99.90;;;;;;4945380;28;20031;-73
2022/03/01 03:13:51;;;;;;;8.90;8.00;;;2.00;99.90;;;;;;4945415;29;20536;-73
2022/03/01 03:16:16;;;;;;;8.37;5.53;;;2.00;99.90;;;;;;4945577;29;20043;-73
2022/03/01 03:18:42;;;;;;;5.67;5.03;;;2.00;99.90;;;;;;4945351;28;20489;-73
2022/03/01 03:21:08;;;;;;;9.60;7.53;;;2.00;99.90;;;;;;4945607;28;20058;-73
2022/03/01 03:23:34;;;;;;;7.47;5.27;;;2.00;99.90;;;;;;4944566;28;20744;-73
2022/03/01 03:26:00;;;;;;;6.50;6.00;;;2.00;99.90;;;;;;4943779;29;20514;-73
2022/03/01 03:28:26;;;;;;;11.83;7.47;;;2.00;99.90;;;;;;4945367;28;20047;-73
2022/03/01 03:30:51;;;;;;;9.90;8.73;;;2.00;99.90;;;;;;4944708;28;20101;-73
2022/03/01 03:33:17;;;;;;;6.83;5.97;;;2.00;99.90;;;;;;4944082;28;20402;-73
2022/03/01 03:35:43;;;;;;;9.23;8.33;;;2.00;99.90;;;;;;4945820;29;20560;-73
2022/03/01 03:38:09;;;;;;;10.97;8.03;;;2.10;99.90;;;;;;4944055;28;20047;-73
2022/03/01 03:40:34;;;;;;;6.07;5.47;;;2.00;99.90;;;;;;4945280;28;20054;-73
2022/03/01 03:43:00;;;;;;;9.10;8.20;;;2.00;99.90;;;;;;4944860;28;20054;-73
2022/03/01 03:45:25;;;;;;;10.43;6.37;;;2.00;99.90;;;;;;4930397;29;20487;-73
2022/03/01 03:47:51;;;;;;;12.50;6.10;;;2.00;99.90;;;;;;4925808;29;20044;-73
2022/03/01 03:50:17;;;;;;;7.17;6.43;;;2.00;99.90;;;;;;4925463;29;20114;-73
2022/03/01 03:52:42;;;;;;;7.00;6.33;;;2.00;99.90;;;;;;4924790;29;20055;-73
2022/03/01 03:55:10;;;;;;;9.70;6.57;;;2.00;99.90;;;;;;4925778;29;20050;-73
2022/03/01 03:57:36;;;;;;;7.93;7.13;;;2.00;99.90;;;;;;4934339;29;20078;-73
2022/03/01 04:00:09;;;;;;;7.80;6.70;;;2.00;99.90;;;;;;4945058;28;20082;-73
2022/03/01 04:02:35;;;;;;;5.72;5.32;;;2.00;99.90;;;;;;4943754;29;20529;-73
2022/03/01 04:05:00;;;;;;;9.17;7.37;;;2.00;99.90;;;;;;4945189;28;20043;-73
2022/03/01 04:07:27;;;;;;;11.83;7.57;;;2.00;99.90;;;;;;4942937;28;20565;-73
2022/03/01 04:09:52;;;;;;;11.63;6.27;;;2.00;99.90;;;;;;4943296;29;20054;-73
2022/03/01 04:12:18;;;;;;;10.77;6.33;;;2.10;99.90;;;;;;4944996;29;20113;-73
2022/03/01 04:14:44;;;;;;;8.10;7.47;;;2.00;99.90;;;;;;4943302;28;20047;-73
2022/03/01 04:17:10;;;;;;;5.83;5.40;;;2.10;99.90;;;;;;4945306;28;20054;-73
2022/03/01 04:19:36;;;;;;;10.27;7.90;;;2.10;99.90;;;;;;4945153;28;20040;-73
2022/03/01 04:22:01;;;;;;;6.40;5.90;;;2.10;99.90;;;;;;4942506;29;20051;-73
2022/03/01 04:24:27;;;;;;;4.87;4.37;;;2.10;99.90;;;;;;4943729;28;20108;-74
2022/03/01 04:26:53;;;;;;;9.23;5.93;;;2.10;99.90;;;;;;4927122;29;20078;-73
2022/03/01 04:29:18;;;;;;;11.70;6.33;;;2.10;99.90;;;;;;4944730;28;20513;-73
2022/03/01 04:31:44;;;;;;;10.40;9.43;;;2.10;99.90;;;;;;4943830;28;20054;-73
2022/03/01 04:34:09;;;;;;;7.43;6.40;;;2.10;99.90;;;;;;4944961;28;20074;-73
2022/03/01 04:36:35;;;;;;;6.20;5.50;;;2.10;99.90;;;;;;4944311;28;20517;-73
2022/03/01 04:39:01;;;;;;;10.80;7.83;;;2.10;99.90;;;;;;4944741;29;20078;-73
2022/03/01 04:41:27;;;;;;;9.60;6.03;;;2.10;99.90;;;;;;4944544;29;20043;-73
2022/03/01 04:43:52;;;;;;;6.73;6.10;;;2.10;99.90;;;;;;4943822;28;20035;-73
2022/03/01 04:46:18;;;;;;;8.07;5.10;;;2.20;99.90;;;;;;4944553;28;20664;-73
2022/03/01 04:48:45;;;;;;;8.57;5.80;;;2.10;99.90;;;;;;4945232;28;20079;-73
2022/03/01 04:51:10;;;;;;;17.57;8.03;;;2.20;99.90;;;;;;4944651;28;20047;-74
2022/03/01 04:53:36;;;;;;;7.93;7.20;;;2.20;99.90;;;;;;4944132;29;20054;-73
2022/03/01 04:56:01;;;;;;;13.27;7.83;;;2.20;99.90;;;;;;4943119;28;20043;-73
2022/03/01 04:58:27;;;;;;;5.93;5.23;;;2.20;99.90;;;;;;4944290;28;20126;-73
2022/03/01 05:00:54;;;;;;;8.87;7.57;;;2.20;99.90;;;;;;4944417;28;20079;-73
2022/03/01 05:03:21;;;;;;;9.93;7.80;;;2.30;99.90;;;;;;4947064;28;20058;-73
2022/03/01 05:05:46;;;;;;;15.07;7.13;;;2.20;99.90;;;;;;4947571;28;20043;-73
2022/03/01 05:08:12;;;;;;;6.53;5.77;;;2.30;99.90;;;;;;4947095;28;20073;-73
2022/03/01 05:10:37;;;;;;;10.03;6.90;;;2.30;99.90;;;;;;4948136;29;20486;-73
2022/03/01 05:13:03;;;;;;;5.80;5.40;;;2.20;99.90;;;;;;4945796;28;20067;-73
2022/03/01 05:15:30;;;;;;;9.53;7.07;;;2.30;99.90;;;;;;4947412;28;20486;-73
2022/03/01 05:17:56;;;;;;;14.00;8.93;;;2.30;99.90;;;;;;4947660;29;20090;-73
2022/03/01 05:20:22;;;;;;;7.00;6.47;;;2.30;99.90;;;;;;4947448;28;20045;-73
2022/03/01 05:22:48;;;;;;;6.27;5.67;;;2.30;99.90;;;;;;4945415;28;20090;-73
2022/03/01 05:25:17;;;;;;;12.07;6.57;;;2.30;99.90;;;;;;4948045;29;20066;-73
2022/03/01 05:27:44;;;;;;;7.80;7.10;;;2.30;99.90;;;;;;4947416;28;20090;-73
2022/03/01 05:30:12;;;;;;;8.60;7.30;;;2.30;99.90;;;;;;4947910;28;20110;-73
2022/03/01 05:32:40;;;;;;;8.83;7.23;;;2.30;99.90;;;;;;4947488;28;20131;-73
2022/03/01 05:35:09;;;;;;;8.73;6.33;;;2.30;99.90;;;;;;4947716;28;20035;-73
2022/03/01 05:37:35;;;;;;;7.87;6.90;;;2.30;99.90;;;;;;4946520;28;20062;-73
2022/03/01 05:40:01;;;;;;;10.87;7.57;;;2.30;99.90;;;;;;4946817;28;20035;-73
2022/03/01 05:42:26;;;;;;;13.10;7.27;;;2.30;99.90;;;;;;4947215;29;20130;-73
2022/03/01 05:44:52;;;;;;;5.00;4.70;;;2.40;99.90;;;;;;4935808;29;20055;-73
2022/03/01 05:47:17;;;;;;;7.67;6.53;;;2.40;99.90;;;;;;4926742;29;20102;-73
2022/03/01 05:49:43;;;;;;;6.73;6.17;;;2.40;99.90;;;;;;4928788;29;20050;-73
2022/03/01 05:52:08;;;;;;;8.03;7.33;;;2.40;99.90;;;;;;4926599;29;20048;-73
2022/03/01 05:54:34;;;;;;;9.37;8.37;;;2.40;99.90;;;;;;4928064;29;20305;-73
2022/03/01 05:57:00;;;;;;;10.57;7.43;;;2.40;99.90;;;;;;4926093;29;20044;-73
2022/03/01 05:59:26;;;;;;;8.60;7.90;;;2.40;99.90;;;;;;4940529;29;20043;-73
2022/03/01 06:01:51;;;;;;;12.20;6.77;;;2.50;99.90;;;;;;4946842;29;20106;-73
2022/03/01 06:04:17;;;;;;;11.17;7.33;;;2.50;99.90;;;;;;4929028;29;20524;-73
2022/03/01 06:06:42;;;;;;;13.03;8.50;;;2.50;99.90;;;;;;4944469;29;20050;-73
2022/03/01 06:09:08;;;;;;;8.17;7.13;;;2.50;99.90;;;;;;4946444;28;20051;-73
2022/03/01 06:11:33;;;;;;;16.63;9.57;;;2.50;99.90;;;;;;4945178;29;20062;-73
2022/03/01 06:13:59;;;;;;;7.77;6.97;;;2.50;99.90;;;;;;4945808;28;20058;-73
2022/03/01 06:16:25;;;;;;;7.53;6.63;;;2.50;99.90;;;;;;4945374;29;20575;-73
2022/03/01 06:18:50;;;;;;;16.37;8.90;;;2.50;99.90;;;;;;4944883;28;20520;-73
2022/03/01 06:21:16;;;;;;;6.30;5.07;;;2.50;99.90;;;;;;4945790;28;20074;-73
2022/03/01 06:23:42;;;;;;;9.30;7.17;;;2.50;99.90;;;;;;4943917;29;20081;-73
2022/03/01 06:26:07;;;;;;;8.50;7.80;;;2.50;99.90;;;;;;4936489;28;20054;-73
2022/03/01 06:28:33;;;;;;;9.37;7.10;;;2.60;99.90;;;;;;4930671;29;20134;-73
2022/03/01 06:30:59;;;;;;;12.23;8.97;;;2.60;99.90;;;;;;4927652;29;20547;-73
2022/03/01 06:33:25;;;;;;;8.53;6.90;;;2.60;99.90;;;;;;4945286;29;20508;-75
2022/03/01 06:35:51;;;;;;;7.80;6.93;;;2.60;99.90;;;;;;4945088;28;20367;-73
2022/03/01 06:38:17;;;;;;;6.33;5.73;;;2.60;99.90;;;;;;4944276;29;20077;-74
2022/03/01 06:40:42;;;;;;;7.47;6.23;;;2.60;99.90;;;;;;4946143;28;20096;-74
2022/03/01 06:43:08;;;;;;;10.13;7.67;;;2.60;99.90;;;;;;4944787;28;20050;-73
2022/03/01 06:45:33;;;;;;;7.13;6.60;;;2.70;99.90;;;;;;4930393;29;20079;-76
2022/03/01 06:47:59;;;;;;;14.83;8.23;;;2.70;99.90;;;;;;4936263;28;20138;-77
2022/03/01 06:50:26;;;;;;;10.80;7.07;;;2.70;99.90;;;;;;4940625;29;20083;-74
2022/03/01 06:52:52;;;;;;;9.77;7.97;;;2.70;99.90;;;;;;4932803;28;20050;-72
2022/03/01 06:55:21;;;;;;;7.23;5.70;;;2.70;99.90;;;;;;4938814;29;20047;-71
2022/03/01 06:57:47;;;;;;;6.67;6.07;;;2.70;99.90;;;;;;4943188;28;20047;-72
2022/03/01 07:00:14;;;;;;;7.13;5.90;;;2.70;99.90;;;;;;4946223;28;20564;-72
2022/03/01 07:02:40;;;;;;;8.03;6.30;;;2.70;99.90;;;;;;4929598;29;20537;-71
2022/03/01 07:05:08;;;;;;;12.00;7.77;;;2.70;99.90;;;;;;4935321;29;20050;-72
2022/03/01 07:07:34;;;;;;;11.83;7.27;;;2.80;99.90;;;;;;4935840;28;20498;-71
2022/03/01 07:10:00;;;;;;;12.70;8.37;;;2.80;99.90;;;;;;4942401;29;20054;-71
2022/03/01 07:12:25;;;;;;;7.90;7.13;;;2.80;99.90;;;;;;4945455;29;20475;-72
2022/03/01 07:14:53;;;;;;;7.93;7.03;;;2.80;99.90;;;;;;4945181;29;20127;-72
2022/03/01 07:17:19;;;;;;;10.23;6.53;;;2.90;99.90;;;;;;4944312;29;20438;-71
2022/03/01 07:19:45;;;;;;;12.07;6.43;;;2.90;99.90;;;;;;4943906;28;20059;-72
2022/03/01 07:22:10;;;;;;;8.87;7.77;;;2.90;99.90;;;;;;4944878;28;20066;-71
2022/03/01 07:24:36;;;;;;;9.13;6.43;;;2.90;99.90;;;;;;4943334;28;20058;-71
2022/03/01 07:27:02;;;;;;;6.60;6.10;;;2.90;99.90;;;;;;4945066;28;20051;-71
2022/03/01 07:29:27;;;;;;;9.53;6.43;;;2.90;99.90;;;;;;4945438;28;20371;-71
2022/03/01 07:31:53;;;;;;;8.43;7.83;;;3.00;99.90;;;;;;4943502;29;20094;-71
2022/03/01 07:34:19;;;;;;;6.40;4.90;;;2.90;99.90;;;;;;4945329;28;20040;-71
2022/03/01 07:36:44;;;;;;;10.17;7.43;;;3.00;99.90;;;;;;4940677;29;20051;-71
2022/03/01 07:39:10;;;;;;;7.67;6.97;;;3.00;99.90;;;;;;4940484;29;20569;-72
2022/03/01 07:41:35;;;;;;;9.67;8.67;;;3.00;99.90;;;;;;4943942;29;20498;-73
2022/03/01 07:44:01;;;;;;;8.03;7.40;;;3.00;99.90;;;;;;4943887;28;20076;-72
2022/03/01 07:46:27;;;;;;;9.47;6.93;;;3.10;99.90;;;;;;4943689;28;20102;-72
2022/03/01 07:48:52;;;;;;;13.33;6.93;;;3.10;99.90;;;;;;4944379;29;20046;-74
2022/03/01 07:51:18;;;;;;;30.07;10.30;;;3.10;99.90;;;;;;4933328;29;20054;-73
2022/03/01 07:53:44;;;;;;;7.27;6.07;;;3.10;99.90;;;;;;4930160;29;20126;-73
2022/03/01 07:56:09;;;;;;;8.50;7.70;;;3.10;99.90;;;;;;4942940;28;20043;-72
2022/03/01 07:58:35;;;;;;;8.13;6.93;;;3.20;99.90;;;;;;4942815;29;20062;-72
2022/03/01 08:01:01;;;;;;;8.17;7.03;;;3.30;99.90;;;;;;4950959;28;20042;-74
2022/03/01 08:03:27;;;;;;;23.23;6.93;;;3.30;99.90;;;;;;4939309;29;20522;-72
2022/03/01 08:05:53;;;;;;;9.73;8.23;;;3.30;99.90;;;;;;4941344;29;20661;-72
2022/03/01 08:08:19;;;;;;;11.93;7.30;;;3.30;99.90;;;;;;4944130;28;20043;-74
2022/03/01 08:10:44;;;;;;;6.30;5.70;;;3.40;99.90;;;;;;4953629;28;20423;-71
2022/03/01 08:13:10;;;;;;;9.63;7.50;;;3.40;99.90;;;;;;4944553;29;20149;-71
2022/03/01 08:15:37;;;;;;;16.30;7.80;;;3.40;99.90;;;;;;4944223;29;20044;-71
2022/03/01 08:18:03;;;;;;;8.83;7.37;;;3.40;99.90;;;;;;4942587;29;20125;-71
2022/03/01 08:20:28;;;;;;;10.83;6.57;;;3.50;99.90;;;;;;4944587;28;20446;-72
2022/03/01 08:22:54;;;;;;;5.00;4.70;;;3.50;99.90;;;;;;4943410;28;20454;-73
2022/03/01 08:25:20;;;;;;;11.17;6.87;;;3.50;99.90;;;;;;4944367;28;20039;-73
2022/03/01 08:27:46;;;;;;;9.33;6.03;;;3.50;99.90;;;;;;4944432;28;20047;-74
2022/03/01 08:30:12;;;;;;;17.47;9.33;;;3.60;99.90;;;;;;4943360;29;20031;-73
2022/03/01 08:32:38;;;;;;;15.97;8.77;;;3.60;99.90;;;;;;4943512;28;20756;-73
2022/03/01 08:35:04;;;;;;;10.33;6.67;;;3.60;99.90;;;;;;4942915;28;20133;-74
2022/03/01 08:37:30;;;;;;;7.87;7.30;;;3.60;99.90;;;;;;4944975;28;20062;-74
2022/03/01 08:39:55;;;;;;;7.87;7.27;;;3.60;99.90;;;;;;4948012;28;20043;-74
2022/03/01 08:42:21;;;;;;;6.07;5.47;;;3.60;99.90;;;;;;4948125;28;20565;-74
2022/03/01 08:44:47;;;;;;;11.37;7.87;;;3.70;99.90;;;;;;4938181;29;20392;-73
2022/03/01 08:47:12;;;;;;;11.83;7.87;;;3.70;99.90;;;;;;4929075;29;20052;-72
2022/03/01 08:49:38;;;;;;;6.57;5.80;;;3.70;99.90;;;;;;4940763;29;20086;-72
2022/03/01 08:52:03;;;;;;;12.43;6.83;;;3.70;99.90;;;;;;4946424;29;20058;-72
2022/03/01 08:54:29;;;;;;;10.30;6.77;;;3.70;99.90;;;;;;4947958;28;20039;-73
2022/03/01 08:56:55;;;;;;;10.23;8.33;;;3.80;99.90;;;;;;4947734;29;20039;-73
2022/03/01 08:59:21;;;;;;;9.77;8.77;;;3.80;99.90;;;;;;4946433;29;20043;-74
2022/03/01 09:01:47;;;;;;;5.10;4.60;;;3.80;99.90;;;;;;4945883;29;20102;-72
2022/03/01 09:04:12;;;;;;;8.00;7.17;;;3.80;99.90;;;;;;4946689;29;20448;-72
2022/03/01 09:06:38;;;;;;;6.10;5.60;;;3.80;99.90;;;;;;4951989;28;20138;-73
2022/03/01 09:09:04;;;;;;;8.73;6.23;;;3.90;99.90;;;;;;4920852;29;20055;-72
2022/03/01 09:11:30;;;;;;;10.40;6.27;;;3.90;99.90;;;;;;4941637;28;20748;-73
2022/03/01 09:13:55;;;;;;;10.40;8.17;;;3.90;99.90;;;;;;4939060;28;20154;-73
2022/03/01 09:16:21;;;;;;;19.60;7.70;;;4.00;99.90;;;;;;4945135;28;20134;-73
2022/03/01 09:18:47;;;;;;;8.67;7.43;;;4.00;99.90;;;;;;4944373;29;20553;-73
2022/03/01 09:21:13;;;;;;;11.60;7.07;;;4.00;99.90;;;;;;4944694;29;20050;-73
2022/03/01 09:23:38;;;;;;;8.90;8.10;;;4.10;99.90;;;;;;4945688;29;20504;-73
2022/03/01 09:26:04;;;;;;;8.13;6.80;;;4.10;99.90;;;;;;4946038;28;20323;-73
2022/03/01 09:28:30;;;;;;;9.63;6.97;;;4.10;99.90;;;;;;4946731;28;20055;-73
2022/03/01 09:30:56;;;;;;;8.87;7.47;;;4.10;99.90;;;;;;4944880;29;21457;-73
2022/03/01 09:33:21;;;;;;;9.50;8.57;;;4.20;99.90;;;;;;4940315;28;20046;-73
2022/03/01 09:35:47;;;;;;;6.53;5.93;;;4.20;99.90;;;;;;4942256;28;20035;-73
2022/03/01 09:38:13;;;;;;;7.80;6.97;;;4.30;99.90;;;;;;4946652;28;20516;-73
2022/03/01 09:40:38;;;;;;;9.70;8.27;;;4.30;99.90;;;;;;4944169;29;20464;-73
2022/03/01 09:43:05;;;;;;;10.63;8.37;;;4.30;99.90;;;;;;4954820;28;20097;-73
2022/03/01 09:45:31;;;;;;;9.47;7.13;;;4.30;99.90;;;;;;4945999;29;20035;-73
2022/03/01 09:47:57;;;;;;;6.63;6.07;;;4.40;99.90;;;;;;4943248;28;20513;-73
2022/03/01 09:50:27;;;;;;;8.53;7.50;;;4.30;99.90;;;;;;4944785;28;20040;-73
2022/03/01 09:52:55;;;;;;;11.07;9.13;;;4.40;99.90;;;;;;4945979;28;20194;-73
2022/03/01 09:55:21;;;;;;;7.73;6.27;;;4.40;99.90;;;;;;4944936;29;20461;-73
2022/03/01 09:57:46;;;;;;;11.10;9.10;;;4.50;99.90;;;;;;4944345;29;20086;-74
2022/03/01 10:00:12;;;;;;;9.33;8.37;;;4.50;99.90;;;;;;4945602;28;20126;-74
2022/03/01 10:02:41;;;;;;;6.57;6.07;;;4.50;99.90;;;;;;4943940;28;20113;-74
2022/03/01 10:05:07;;;;;;;16.53;8.80;;;4.50;99.90;;;;;;4943799;28;20525;-74
2022/03/01 10:07:34;;;;;;;11.88;8.95;;;4.50;99.90;;;;;;4944676;28;20465;-74
2022/03/01 10:10:13;;;;;;;9.50;6.73;;;4.60;99.90;;;;;;4944566;29;20146;-73
2022/03/01 10:12:39;;;;;;;10.70;8.20;;;4.60;99.90;;;;;;4944345;28;20047;-73
2022/03/01 10:15:07;;;;;;;14.13;7.70;;;4.60;99.90;;;;;;4945475;29;20050;-73
2022/03/01 10:17:37;;;;;;;17.98;9.55;;;4.60;99.90;;;;;;4945326;28;20418;-74
2022/03/01 10:20:10;;;;;;;8.00;6.67;;;4.60;99.90;;;;;;4944846;28;20043;-73
2022/03/01 10:22:44;;;;;;;12.38;7.85;;;4.60;99.90;;;;;;4950749;28;20039;-73
2022/03/01 10:25:12;;;;;;;11.23;8.97;;;4.60;99.90;;;;;;4946212;28;20063;-73
2022/03/01 10:27:38;;;;;;;16.30;9.45;;;4.60;99.90;;;;;;4944622;28;20133;-73
2022/03/01 10:30:06;;;;;;;10.07;9.05;;;4.70;99.90;;;;;;4944565;28;20082;-73
2022/03/01 10:32:33;;;;;;;12.67;10.17;;;4.70;99.90;;;;;;4941372;29;21543;-75
2022/03/01 10:35:07;;;;;;;9.52;8.68;;;4.70;99.90;;;;;;4941414;28;20055;-73
2022/03/01 10:37:37;;;;;;;8.48;7.85;;;4.70;99.90;;;;;;4936638;29;20035;-73
2022/03/01 10:40:15;;;;;;;13.23;7.43;;;4.70;99.90;;;;;;4944473;29;20049;-74
2022/03/01 10:42:42;;;;;;;9.43;8.27;;;4.70;99.90;;;;;;4945055;29;20090;-74
2022/03/01 10:45:09;;;;;;;10.00;9.02;;;4.70;99.90;;;;;;4943387;29;20039;-74
2022/03/01 10:47:36;;;;;;;12.52;7.95;;;4.70;99.90;;;;;;4945685;28;20051;-74
2022/03/01 10:50:10;;;;;;;13.35;8.23;;;4.70;99.90;;;;;;4944970;28;20107;-74
2022/03/01 10:52:39;;;;;;;12.50;8.82;;;4.70;99.90;;;;;;4927632;29;20050;-74
2022/03/01 10:55:06;;;;;;;17.52;11.60;;;4.70;99.90;;;;;;4944840;28;20051;-74
2022/03/01 10:57:32;;;;;;;8.82;7.97;;;4.70;99.90;;;;;;4944853;29;20035;-74
2022/03/01 10:59:58;;;;;;;9.00;7.07;;;4.70;99.90;;;;;;4937512;28;20063;-73
2022/03/01 11:02:24;;;;;;;12.20;9.18;;;4.80;99.90;;;;;;4941292;28;20546;-72
2022/03/01 11:04:51;;;;;;;11.82;10.68;;;4.80;99.90;;;;;;4944206;28;20414;-73
2022/03/01 11:07:18;;;;;;;14.07;8.65;;;4.80;99.90;;;;;;4944720;28;20584;-75
2022/03/01 11:09:44;;;;;;;9.50;7.72;;;4.80;99.90;;;;;;4944160;28;20118;-73
2022/03/01 11:12:11;;;;;;;11.27;8.70;;;4.80;99.90;;;;;;4944786;28;20074;-76
2022/03/01 11:14:54;;;;;;;14.68;10.27;;;4.80;99.90;;;;;;4942340;29;20051;-76
2022/03/01 11:17:58;;;;;;;13.10;8.38;;;4.80;99.90;;;;;;4927484;29;20062;-78
2022/03/01 11:20:27;;;;;;;9.80;8.82;;;4.90;99.90;;;;;;4942496;29;20059;-78
2022/03/01 11:22:58;;;;;;;10.85;9.75;;;4.90;99.90;;;;;;4945294;28;20062;-76
2022/03/01 11:25:30;;;;;;;10.75;8.57;;;4.80;99.90;;;;;;4943694;29;20130;-76
2022/03/01 11:28:01;;;;;;;9.75;8.75;;;4.90;99.90;;;;;;4943169;28;20062;-77
2022/03/01 11:30:32;;;;;;;10.70;8.63;;;4.90;99.90;;;;;;4942233;29;20122;-77
2022/03/01 11:32:59;;;;;;;20.92;9.38;;;4.90;99.90;;;;;;4941635;28;20110;-75
2022/03/01 11:35:27;;;;;;;19.90;10.07;;;4.90;99.90;;;;;;4942287;28;20043;-76
2022/03/01 11:38:11;;;;;;;10.80;8.77;;;4.90;99.90;;;;;;4942409;29;20095;-77
2022/03/01 11:40:42;;;;;;;11.50;10.45;;;5.00;99.90;;;;;;4934688;29;20070;-75
2022/03/01 11:43:09;;;;;;;12.32;9.88;;;5.00;99.90;;;;;;4944956;28;20051;-75
2022/03/01 11:45:35;;;;;;;13.55;8.55;;;5.00;99.90;;;;;;4943050;28;20050;-74
2022/03/01 11:48:03;;;;;;;10.68;9.57;;;5.00;99.90;;;;;;4944580;28;20047;-77
2022/03/01 11:50:30;;;;;;;8.73;7.97;;;5.00;99.90;;;;;;4941572;28;20036;-73
2022/03/01 11:53:05;;;;;;;11.68;9.38;;;5.10;99.90;;;;;;4941482;28;20139;-77
2022/03/01 11:55:41;;;;;;;13.70;8.73;;;5.10;99.90;;;;;;4944889;28;20051;-79
2022/03/01 11:58:07;;;;;;;16.90;11.07;;;5.20;99.90;;;;;;4935828;29;20035;-77
2022/03/01 12:00:41;;;;;;;11.95;10.88;;;5.20;99.90;;;;;;4937517;28;20133;-75
2022/03/01 12:03:10;;;;;;;12.52;7.88;;;5.20;99.90;;;;;;4937167;28;20044;-78
2022/03/01 12:05:37;;;;;;;9.07;7.63;;;5.20;99.90;;;;;;4935256;28;20042;-72
2022/03/01 12:08:05;;;;;;;17.05;8.45;;;5.20;99.90;;;;;;4943307;28;20051;-78
2022/03/01 12:10:31;;;;;;;9.93;8.80;;;5.30;99.90;;;;;;4925230;28;20055;-78
2022/03/01 12:12:57;;;;;;;10.30;9.30;;;5.30;99.90;;;;;;4923892;29;20059;-78
2022/03/01 12:15:37;;;;;;;10.15;8.45;;;5.30;99.90;;;;;;4949855;28;20054;-75
2022/03/01 12:18:12;;;;;;;9.60;8.57;;;5.40;99.90;;;;;;4936342;29;20039;-75
2022/03/01 12:20:40;;;;;;;8.80;8.05;;;5.40;99.90;;;;;;4945823;29;20506;-75
2022/03/01 12:23:06;;;;;;;9.52;8.55;;;5.40;99.90;;;;;;4945770;29;20043;-75
2022/03/01 12:25:34;;;;;;;10.18;8.63;;;5.40;99.90;;;;;;4947606;28;20081;-75
2022/03/01 12:28:02;;;;;;;20.35;9.85;;;5.50;99.90;;;;;;4947474;28;20047;-75
2022/03/01 12:30:27;;;;;;;11.20;8.38;;;5.50;99.90;;;;;;4947984;28;20098;-74
2022/03/01 12:32:56;;;;;;;34.50;8.55;;;5.60;99.90;;;;;;4945768;29;20043;-75
2022/03/01 12:35:23;;;;;;;12.52;9.55;;;5.60;99.90;;;;;;4938243;29;20070;-75
2022/03/01 12:37:50;;;;;;;9.13;7.07;;;5.60;99.90;;;;;;4938110;29;20102;-75
2022/03/01 12:40:30;;;;;;;11.23;9.07;;;5.70;99.90;;;;;;4942745;29;20279;-73
2022/03/01 12:43:01;;;;;;;12.10;8.77;;;5.70;99.90;;;;;;4929177;29;20043;-74
2022/03/01 12:45:31;;;;;;;15.73;9.10;;;5.70;99.90;;;;;;4941439;28;20531;-74
2022/03/01 12:47:57;;;;;;;13.13;10.90;;;5.80;99.90;;;;;;4947248;28;20129;-74
2022/03/01 12:50:23;;;;;;;13.27;8.75;;;5.80;99.90;;;;;;4946136;28;20514;-74
2022/03/01 12:52:54;;;;;;;9.13;8.20;;;5.80;99.90;;;;;;4945423;29;20097;-76